| time (UTC) | temp C | wind direction | speed KPH | gust KPH | rain 1hr cm | rain 24hr cm | rain mn cm | humidity % | barometer mb |
| 20260510190418 | 22 | 360 | 0.0 | 4.8 | 0.00 | 0.74 | 0.00 | 54 | 1011.8 |
| 20260510184518 | 22 | 360 | 4.8 | 11.3 | 0.00 | 0.74 | 0.00 | 60 | 1011.8 |
| 20260510182618 | 22 | 360 | 1.6 | 6.4 | 0.00 | 0.74 | 0.00 | 61 | 1011.7 |
| 20260510180718 | 22 | 360 | 0.0 | 4.8 | 0.00 | 0.74 | 0.00 | 61 | 1011.9 |
| 20260510174818 | 22 | 360 | 4.8 | 9.7 | 0.00 | 0.74 | 0.00 | 62 | 1011.8 |
| 20260510172938 | 22 | 360 | 1.6 | 12.9 | 0.00 | 0.74 | 0.00 | 64 | 1011.9 |
| 20260510171018 | 21 | 360 | 1.6 | 9.7 | 0.00 | 0.74 | 0.00 | 67 | 1012.0 |
| 20260510165118 | 20 | 360 | 0.0 | 4.8 | 0.00 | 0.74 | 0.00 | 71 | 1012.2 |
| 20260510163218 | 20 | 360 | 0.0 | 4.8 | 0.00 | 0.74 | 0.00 | 72 | 1012.4 |
| 20260510161319 | 18 | 360 | 0.0 | 4.8 | 0.00 | 0.74 | 0.00 | 76 | 1012.5 |
| 20260510155438 | 17 | 360 | 0.0 | 4.8 | 0.00 | 0.74 | 0.00 | 80 | 1012.4 |
| 20260510153538 | 17 | 360 | 0.0 | 3.2 | 0.00 | 0.74 | 0.00 | 82 | 1012.7 |
| 20260510151638 | 15 | 360 | 3.2 | 3.2 | 0.00 | 0.74 | 0.00 | 81 | 1012.7 |
| 20260510145718 | 15 | 360 | 0.0 | 1.6 | 0.00 | 0.74 | 0.00 | 81 | 1013.1 |
| 20260510143818 | 14 | 360 | 0.0 | 1.6 | 0.00 | 0.74 | 0.00 | 81 | 1012.9 |
| 20260510141918 | 13 | 360 | 0.0 | 0.0 | 0.00 | 0.74 | 0.00 | 81 | 1012.9 |
| 20260510140038 | 13 | 360 | 0.0 | 0.0 | 0.00 | 0.74 | 0.00 | 81 | 1012.8 |
| 20260510134118 | 13 | 360 | 0.0 | 0.0 | 0.00 | 0.74 | 0.00 | 81 | 1012.8 |
| 20260510132238 | 12 | 360 | 0.0 | 0.0 | 0.00 | 0.74 | 0.00 | 81 | 1012.6 |
| 20260510130339 | 12 | 360 | 0.0 | 0.0 | 0.00 | 0.74 | 0.00 | 81 | 1012.5 |
| 20260510124418 | 12 | 360 | 0.0 | 0.0 | 0.00 | 0.74 | 0.00 | 81 | 1012.4 |
| 20260510122518 | 12 | 360 | 0.0 | 0.0 | 0.00 | 0.74 | 0.00 | 81 | 1012.1 |
| 20260510120618 | 12 | 360 | 0.0 | 0.0 | 0.00 | 0.74 | 0.00 | 81 | 1011.9 |
| 20260510114718 | 12 | 360 | 0.0 | 0.0 | 0.00 | 0.74 | 0.00 | 81 | 1011.8 |
| 20260510112818 | 12 | 360 | 0.0 | 0.0 | 0.00 | 0.74 | 0.00 | 81 | 1011.8 |
| 20260510110918 | 11 | 360 | 0.0 | 0.0 | 0.00 | 0.74 | 0.00 | 81 | 1011.3 |
| 20260510105018 | 11 | 360 | 0.0 | 0.0 | 0.00 | 0.74 | 0.00 | 81 | 1011.2 |
| 20260510103118 | 11 | 360 | 0.0 | 0.0 | 0.00 | 0.74 | 0.00 | 81 | 1011.2 |
| 20260510101218 | 11 | 360 | 0.0 | 0.0 | 0.00 | 0.74 | 0.00 | 81 | 1011.3 |
| 20260510095318 | 11 | 360 | 0.0 | 0.0 | 0.00 | 0.74 | 0.00 | 81 | 1011.2 |
| 20260510093418 | 11 | 360 | 0.0 | 0.0 | 0.00 | 0.74 | 0.00 | 81 | 1011.2 |
| 20260510091517 | 11 | 360 | 0.0 | 0.0 | 0.00 | 0.74 | 0.00 | 81 | 1011.5 |
| 20260510085617 | 11 | 360 | 0.0 | 0.0 | 0.00 | 0.74 | 0.00 | 81 | 1011.8 |
| 20260510083717 | 11 | 360 | 0.0 | 0.0 | 0.00 | 0.74 | 0.00 | 81 | 1011.6 |
| 20260510081817 | 11 | 360 | 0.0 | 0.0 | 0.00 | 0.74 | 0.00 | 81 | 1011.6 |
| 20260510075918 | 11 | 360 | 0.0 | 0.0 | 0.00 | 0.74 | 0.00 | 81 | 1011.4 |
| 20260510074018 | 11 | 360 | 0.0 | 0.0 | 0.00 | 0.74 | 0.00 | 81 | 1010.7 |
| 20260510072118 | 11 | 360 | 0.0 | 0.0 | 0.00 | 0.74 | 0.00 | 81 | 1010.7 |
| 20260510070217 | 11 | 360 | 0.0 | 0.0 | 0.00 | 0.74 | 0.00 | 81 | 1010.8 |
| 20260510064318 | 11 | 360 | 0.0 | 0.0 | 0.00 | 0.74 | 0.00 | 81 | 1010.9 |
| 20260510062417 | 11 | 360 | 0.0 | 0.0 | 0.00 | 0.74 | 0.00 | 81 | 1010.9 |
| 20260510060518 | 11 | 360 | 0.0 | 0.0 | 0.00 | 0.74 | 0.00 | 81 | 1010.8 |
| 20260510054617 | 11 | 360 | 0.0 | 0.0 | 0.00 | 0.74 | 0.00 | 81 | 1010.7 |
| 20260510052718 | 11 | 360 | 0.0 | 0.0 | 0.00 | 0.74 | 0.00 | 81 | 1010.6 |
| 20260510050837 | 10 | 360 | 0.0 | 0.0 | 0.00 | 0.74 | 0.00 | 81 | 1010.8 |
| 20260510044917 | 10 | 360 | 0.0 | 0.0 | 0.00 | 0.74 | 0.00 | 81 | 1010.8 |
| 20260510043018 | 10 | 360 | 0.0 | 0.0 | 0.00 | 0.74 | 0.00 | 81 | 1010.9 |
| 20260510041118 | 10 | 360 | 0.0 | 0.0 | 0.00 | 0.74 | 0.00 | 82 | 1010.7 |
| 20260510035659 | 10 | 360 | 0.0 | 0.0 | 0.00 | 0.46 | 0.76 | 82 | 1010.8 |
| 20260510033739 | 10 | 360 | 0.0 | 0.0 | 0.00 | 0.46 | 0.76 | 82 | 1010.5 |
| 20260510031838 | 10 | 360 | 0.0 | 0.0 | 0.00 | 0.46 | 0.76 | 82 | 1010.3 |
| 20260510025919 | 10 | 360 | 0.0 | 0.0 | 0.00 | 0.46 | 0.76 | 82 | 1010.3 |
| 20260510024018 | 11 | 360 | 0.0 | 0.0 | 0.00 | 0.46 | 0.76 | 82 | 1010.5 |
| 20260510022118 | 11 | 360 | 0.0 | 0.0 | 0.00 | 0.46 | 0.76 | 82 | 1010.6 |
| 20260510020219 | 11 | 360 | 0.0 | 0.0 | 0.00 | 0.46 | 0.76 | 82 | 1010.6 |
| 20260510014319 | 11 | 360 | 0.0 | 0.0 | 0.00 | 0.46 | 0.76 | 82 | 1010.5 |
| 20260510012418 | 12 | 360 | 0.0 | 0.0 | 0.00 | 0.46 | 0.76 | 82 | 1010.4 |
| 20260510010519 | 12 | 360 | 0.0 | 0.0 | 0.00 | 0.46 | 0.76 | 82 | 1009.9 |
| 20260510004619 | 12 | 360 | 0.0 | 0.0 | 0.00 | 0.46 | 0.76 | 81 | 1009.9 |
| 20260510002718 | 13 | 360 | 0.0 | 0.0 | 0.00 | 0.46 | 0.76 | 81 | 1009.9 |
| 20260510000818 | 13 | 360 | 0.0 | 0.0 | 0.00 | 0.46 | 0.76 | 82 | 1009.9 |
| 20260509234918 | 13 | 360 | 0.0 | 0.0 | 0.00 | 0.43 | 0.74 | 82 | 1009.7 |
| 20260509233018 | 13 | 360 | 0.0 | 0.0 | 0.13 | 0.43 | 0.74 | 82 | 1009.6 |
| 20260509231118 | 13 | 360 | 0.0 | 3.2 | 0.00 | 0.41 | 0.71 | 81 | 1009.7 |
| 20260509225238 | 13 | 360 | 0.0 | 3.2 | 0.15 | 0.38 | 0.69 | 81 | 1010.0 |
| 20260509223318 | 13 | 360 | 1.6 | 3.2 | 0.20 | 0.33 | 0.64 | 82 | 1010.0 |
| 20260509221419 | 13 | 360 | 0.0 | 0.0 | 0.25 | 0.28 | 0.58 | 82 | 1010.1 |
| 20260509215518 | 13 | 360 | 0.0 | 0.0 | 0.25 | 0.23 | 0.53 | 82 | 1010.3 |
| 20260509213618 | 13 | 360 | 0.0 | 0.0 | 0.28 | 0.18 | 0.48 | 82 | 1010.2 |
| 20260509211719 | 13 | 360 | 0.0 | 3.2 | 0.00 | 0.10 | 0.41 | 82 | 1010.4 |
| 20260509205818 | 13 | 360 | 1.6 | 3.2 | 0.13 | 0.08 | 0.38 | 82 | 1010.4 |
| 20260509203918 | 13 | 360 | 0.0 | 0.0 | 0.00 | 0.05 | 0.36 | 82 | 1010.6 |
| 20260509202018 | 13 | 360 | 0.0 | 1.6 | 0.10 | 0.03 | 0.33 | 82 | 1010.9 |
| 20260509200119 | 14 | 360 | 0.0 | 1.6 | 0.00 | 0.00 | 0.30 | 82 | 1010.8 |
| 20260509194218 | 14 | 360 | 0.0 | 0.0 | 0.00 | 0.00 | 0.28 | 82 | 1010.5 |
| 20260509192318 | 14 | 360 | 0.0 | 3.2 | 0.00 | 0.00 | 0.28 | 82 | 1010.4 |